Time;durP1;ratioP1;P1;durP2;ratioP2;P2;SDS_P1;SDS_P2;PMS_P1;PMS_P2;Temp;Humidity;BMP_temperature;BMP_pressure;BME280_temperature;BME280_humidity;BME280_pressure;Samples;Min_cycle;Max_cycle;Signal;HPM_P1;HPM_P2
2021/05/16 00:00:39;;;;;;;14.03;12.90;;;;;;;;;;4994587;28;20486;-65
2021/05/16 00:03:06;;;;;;;13.13;12.20;;;;;;;;;;4994538;28;20849;-65
2021/05/16 00:05:33;;;;;;;14.37;13.27;;;;;;;;;;4994408;28;20466;-65
2021/05/16 00:08:00;;;;;;;14.73;13.63;;;;;;;;;;4993794;28;20454;-65
2021/05/16 00:10:27;;;;;;;12.93;12.03;;;;;;;;;;4994624;28;20453;-65
2021/05/16 00:12:54;;;;;;;13.07;12.13;;;;;;;;;;4994371;28;20455;-65
2021/05/16 00:15:21;;;;;;;13.60;12.70;;;;;;;;;;4994138;28;20490;-65
2021/05/16 00:17:48;;;;;;;13.63;12.53;;;;;;;;;;4994466;28;20907;-65
2021/05/16 00:20:15;;;;;;;14.30;13.30;;;;;;;;;;4994488;28;20462;-65
2021/05/16 00:22:43;;;;;;;15.37;14.27;;;;;;;;;;4993776;28;20941;-65
2021/05/16 00:25:12;;;;;;;13.77;12.80;;;;;;;;;;4994031;28;20474;-65
2021/05/16 00:27:39;;;;;;;14.63;13.53;;;;;;;;;;4994059;28;20534;-65
2021/05/16 00:30:07;;;;;;;14.20;13.10;;;;;;;;;;4994093;28;20530;-65
2021/05/16 00:32:34;;;;;;;13.70;12.60;;;;;;;;;;4993261;28;20457;-65
2021/05/16 00:35:00;;;;;;;12.97;12.10;;;;;;;;;;4978023;28;20498;-64
2021/05/16 00:37:27;;;;;;;12.80;11.80;;;;;;;;;;4974217;28;20452;-64
2021/05/16 00:39:55;;;;;;;13.90;12.80;;;;;;;;;;4989485;28;20454;-64
2021/05/16 00:42:22;;;;;;;12.30;11.50;;;;;;;;;;4993994;28;20454;-65
2021/05/16 00:45:01;;;;;;;12.13;11.23;;;;;;;;;;4993540;28;20470;-65
2021/05/16 00:47:28;;;;;;;12.70;11.70;;;;;;;;;;4993879;28;20512;-65
2021/05/16 00:49:55;;;;;;;13.53;12.33;;;;;;;;;;4993804;28;20454;-64
2021/05/16 00:52:22;;;;;;;13.17;12.27;;;;;;;;;;4993441;28;20462;-66
2021/05/16 00:54:50;;;;;;;14.70;13.60;;;;;;;;;;4993264;28;20494;-66
2021/05/16 00:57:17;;;;;;;13.43;12.53;;;;;;;;;;4993641;28;20446;-65
2021/05/16 00:59:44;;;;;;;12.63;11.73;;;;;;;;;;4993626;28;20447;-65
2021/05/16 01:02:11;;;;;;;11.90;11.00;;;;;;;;;;4993567;28;20454;-65
2021/05/16 01:04:38;;;;;;;11.70;10.90;;;;;;;;;;4992908;28;20471;-65
2021/05/16 01:07:05;;;;;;;11.17;10.37;;;;;;;;;;4993261;28;20453;-67
2021/05/16 01:09:31;;;;;;;12.03;10.93;;;;;;;;;;4993257;28;20451;-67
2021/05/16 01:12:01;;;;;;;12.23;11.33;;;;;;;;;;4992794;28;20968;-67
2021/05/16 01:14:32;;;;;;;11.13;10.40;;;;;;;;;;4992964;28;20482;-66
2021/05/16 01:16:59;;;;;;;10.87;10.07;;;;;;;;;;4993322;28;20466;-66
2021/05/16 01:19:26;;;;;;;11.27;10.47;;;;;;;;;;4992528;28;20949;-66
2021/05/16 01:21:55;;;;;;;9.77;9.03;;;;;;;;;;4992926;28;20453;-67
2021/05/16 01:24:24;;;;;;;10.90;10.13;;;;;;;;;;4992693;28;21073;-69
2021/05/16 01:26:51;;;;;;;10.47;9.67;;;;;;;;;;4992477;28;20451;-67
2021/05/16 01:29:18;;;;;;;10.80;9.80;;;;;;;;;;4992858;28;20462;-66
2021/05/16 01:31:45;;;;;;;10.20;9.50;;;;;;;;;;4993119;28;20449;-65
2021/05/16 01:34:12;;;;;;;9.83;9.20;;;;;;;;;;4991942;28;20895;-66
2021/05/16 01:36:39;;;;;;;11.10;10.40;;;;;;;;;;4992657;28;20450;-65
2021/05/16 01:39:08;;;;;;;10.63;9.83;;;;;;;;;;4992956;28;20458;-66
2021/05/16 01:41:34;;;;;;;10.50;9.63;;;;;;;;;;4992743;28;20456;-64
2021/05/16 01:44:01;;;;;;;10.07;9.37;;;;;;;;;;4992580;28;20461;-66
2021/05/16 01:46:28;;;;;;;10.97;10.10;;;;;;;;;;4992773;28;20475;-65
2021/05/16 01:48:54;;;;;;;10.30;9.50;;;;;;;;;;4990381;28;20447;-66
2021/05/16 01:51:21;;;;;;;10.60;9.90;;;;;;;;;;4992597;28;20946;-65
2021/05/16 01:53:49;;;;;;;10.50;9.80;;;;;;;;;;4992206;28;20458;-66
2021/05/16 01:56:21;;;;;;;11.07;10.27;;;;;;;;;;4992360;28;20474;-66
2021/05/16 01:58:48;;;;;;;10.77;9.97;;;;;;;;;;4992588;28;20505;-66
2021/05/16 02:01:15;;;;;;;10.70;9.90;;;;;;;;;;4992390;28;20454;-65
2021/05/16 02:03:43;;;;;;;11.07;10.20;;;;;;;;;;4986586;28;20862;-66
2021/05/16 02:06:09;;;;;;;11.83;10.93;;;;;;;;;;4972814;28;20982;-66
2021/05/16 02:08:36;;;;;;;10.60;9.90;;;;;;;;;;4984606;28;20873;-66
2021/05/16 02:11:04;;;;;;;11.37;10.50;;;;;;;;;;4992575;28;20450;-66
2021/05/16 02:13:32;;;;;;;11.20;10.40;;;;;;;;;;4991959;28;20944;-66
2021/05/16 02:15:58;;;;;;;11.57;10.77;;;;;;;;;;4992371;28;20467;-66
2021/05/16 02:18:25;;;;;;;10.90;10.20;;;;;;;;;;4989804;28;20458;-66
2021/05/16 02:20:51;;;;;;;11.53;10.70;;;;;;;;;;4972966;28;20966;-65
2021/05/16 02:23:18;;;;;;;12.47;11.57;;;;;;;;;;4983553;28;20451;-64
2021/05/16 02:25:45;;;;;;;11.67;10.80;;;;;;;;;;4991739;28;20993;-64
2021/05/16 02:28:11;;;;;;;11.97;11.17;;;;;;;;;;4992248;28;20451;-64
2021/05/16 02:30:39;;;;;;;12.60;11.70;;;;;;;;;;4992040;28;20454;-64
2021/05/16 02:33:06;;;;;;;12.07;11.17;;;;;;;;;;4992064;28;20832;-64
2021/05/16 02:35:32;;;;;;;11.63;10.83;;;;;;;;;;4989629;28;21001;-64
2021/05/16 02:37:59;;;;;;;11.77;10.87;;;;;;;;;;4992129;28;20442;-64
2021/05/16 02:40:26;;;;;;;12.83;11.80;;;;;;;;;;4992233;28;20500;-64
2021/05/16 02:42:52;;;;;;;12.23;11.43;;;;;;;;;;4992620;28;20859;-65
2021/05/16 02:45:19;;;;;;;11.93;10.97;;;;;;;;;;4991732;28;20474;-65
2021/05/16 02:47:47;;;;;;;13.00;12.10;;;;;;;;;;4992377;28;20447;-64
2021/05/16 02:50:15;;;;;;;11.90;11.10;;;;;;;;;;4991759;28;20799;-64
2021/05/16 02:52:42;;;;;;;12.63;11.70;;;;;;;;;;4992161;28;20450;-64
2021/05/16 02:55:09;;;;;;;12.50;11.50;;;;;;;;;;4992041;28;20490;-68
2021/05/16 02:57:35;;;;;;;12.30;11.40;;;;;;;;;;4991946;28;20451;-65
2021/05/16 03:00:02;;;;;;;11.90;11.00;;;;;;;;;;4992200;28;20461;-64
2021/05/16 03:02:28;;;;;;;12.67;11.77;;;;;;;;;;4991769;28;20459;-65
2021/05/16 03:04:56;;;;;;;11.20;10.40;;;;;;;;;;4991862;28;20463;-64
2021/05/16 03:07:22;;;;;;;11.37;10.57;;;;;;;;;;4996020;28;20446;-65
2021/05/16 03:09:49;;;;;;;11.77;10.97;;;;;;;;;;4996502;28;20457;-64
2021/05/16 03:12:16;;;;;;;12.87;11.87;;;;;;;;;;4995195;28;20450;-65
2021/05/16 03:14:42;;;;;;;11.37;10.47;;;;;;;;;;4995439;28;20577;-64
2021/05/16 03:17:09;;;;;;;12.40;11.40;;;;;;;;;;4995301;28;20974;-64
2021/05/16 03:19:35;;;;;;;12.50;11.67;;;;;;;;;;4994896;28;20505;-65
2021/05/16 03:22:03;;;;;;;12.83;11.83;;;;;;;;;;4995295;28;20450;-64
2021/05/16 03:24:30;;;;;;;12.13;11.17;;;;;;;;;;4995283;28;20451;-65
2021/05/16 03:26:56;;;;;;;11.37;10.47;;;;;;;;;;4994580;28;20459;-65
2021/05/16 03:29:23;;;;;;;12.43;11.53;;;;;;;;;;4995721;28;20453;-65
2021/05/16 03:31:50;;;;;;;11.77;10.97;;;;;;;;;;4994912;28;20868;-65
2021/05/16 03:34:16;;;;;;;11.80;11.00;;;;;;;;;;4994795;28;20552;-64
2021/05/16 03:36:43;;;;;;;11.07;10.27;;;;;;;;;;4994477;28;20986;-65
2021/05/16 03:39:11;;;;;;;12.07;11.10;;;;;;;;;;4995117;28;20452;-65
2021/05/16 03:41:37;;;;;;;11.30;10.50;;;;;;;;;;4995243;28;20454;-66
2021/05/16 03:44:04;;;;;;;10.40;9.60;;;;;;;;;;4994865;28;20481;-65
2021/05/16 03:46:31;;;;;;;11.70;10.93;;;;;;;;;;4994786;28;20529;-64
2021/05/16 03:48:59;;;;;;;11.60;10.80;;;;;;;;;;4994824;28;20446;-66
2021/05/16 03:51:26;;;;;;;11.03;10.23;;;;;;;;;;4994468;28;21027;-64
2021/05/16 03:53:52;;;;;;;10.80;10.00;;;;;;;;;;4994322;28;20945;-65
2021/05/16 03:56:20;;;;;;;11.80;10.93;;;;;;;;;;4994863;28;20480;-64
2021/05/16 03:58:46;;;;;;;11.17;10.37;;;;;;;;;;4995112;28;20520;-64
2021/05/16 04:01:13;;;;;;;10.80;10.10;;;;;;;;;;4994495;28;20626;-64
2021/05/16 04:03:40;;;;;;;11.20;10.40;;;;;;;;;;4994442;28;21014;-66
2021/05/16 04:06:07;;;;;;;11.83;10.90;;;;;;;;;;4994155;28;20477;-65
2021/05/16 04:08:33;;;;;;;10.80;10.10;;;;;;;;;;4994625;28;20886;-64
2021/05/16 04:11:00;;;;;;;12.00;11.13;;;;;;;;;;4994429;28;20450;-66
2021/05/16 04:13:27;;;;;;;11.00;10.20;;;;;;;;;;4994566;28;20477;-65
2021/05/16 04:15:54;;;;;;;11.43;10.57;;;;;;;;;;4993387;28;20490;-64
2021/05/16 04:18:20;;;;;;;11.47;10.73;;;;;;;;;;4994102;28;20462;-65
2021/05/16 04:20:47;;;;;;;11.57;10.87;;;;;;;;;;4981719;28;20455;-65
2021/05/16 04:23:14;;;;;;;11.87;11.00;;;;;;;;;;4982924;28;20466;-64
2021/05/16 04:25:41;;;;;;;10.10;9.43;;;;;;;;;;4993790;28;20478;-65
2021/05/16 04:28:07;;;;;;;10.93;10.23;;;;;;;;;;4994419;28;20816;-67
2021/05/16 04:30:35;;;;;;;9.90;9.20;;;;;;;;;;4994497;28;20450;-67
2021/05/16 04:33:01;;;;;;;10.83;10.13;;;;;;;;;;4993985;28;20450;-67
2021/05/16 04:35:28;;;;;;;10.50;9.73;;;;;;;;;;4990408;28;20893;-67
2021/05/16 04:37:55;;;;;;;9.83;9.13;;;;;;;;;;4978431;28;20509;-66
2021/05/16 04:40:21;;;;;;;10.13;9.53;;;;;;;;;;4993824;28;20846;-66
2021/05/16 04:42:48;;;;;;;9.70;9.10;;;;;;;;;;4993839;28;20461;-67
2021/05/16 04:45:15;;;;;;;10.60;10.00;;;;;;;;;;4992461;28;20470;-67
2021/05/16 04:47:42;;;;;;;10.90;10.20;;;;;;;;;;4992897;28;20461;-66
2021/05/16 04:50:09;;;;;;;10.53;9.73;;;;;;;;;;4994096;28;20823;-65
2021/05/16 04:52:36;;;;;;;11.10;10.40;;;;;;;;;;4993973;28;20457;-66
2021/05/16 04:55:02;;;;;;;10.83;10.13;;;;;;;;;;4993892;28;20501;-66
2021/05/16 04:57:29;;;;;;;10.20;9.50;;;;;;;;;;4993522;28;20446;-66
2021/05/16 04:59:56;;;;;;;11.07;10.27;;;;;;;;;;4993642;28;20454;-66
2021/05/16 05:02:23;;;;;;;9.97;9.37;;;;;;;;;;4993618;28;20458;-65
2021/05/16 05:04:51;;;;;;;10.83;10.03;;;;;;;;;;4993162;28;20483;-66
2021/05/16 05:07:18;;;;;;;10.57;9.53;;;;;;;;;;4993801;28;20553;-66
2021/05/16 05:09:45;;;;;;;10.57;9.93;;;;;;;;;;4993014;28;20450;-66
2021/05/16 05:12:11;;;;;;;10.20;9.60;;;;;;;;;;4993683;28;20458;-65
2021/05/16 05:14:38;;;;;;;10.33;9.67;;;;;;;;;;4992790;28;20513;-66
2021/05/16 05:17:05;;;;;;;10.43;9.83;;;;;;;;;;4993105;28;20466;-66
2021/05/16 05:19:31;;;;;;;10.43;9.73;;;;;;;;;;4991878;28;20455;-66
2021/05/16 05:21:59;;;;;;;10.10;9.40;;;;;;;;;;4992920;28;20513;-65
2021/05/16 05:24:25;;;;;;;10.93;10.00;;;;;;;;;;4993336;28;20442;-66
2021/05/16 05:26:52;;;;;;;9.93;9.33;;;;;;;;;;4992993;28;20431;-65
2021/05/16 05:29:18;;;;;;;10.77;10.07;;;;;;;;;;4992480;28;20457;-66
2021/05/16 05:31:45;;;;;;;10.60;10.00;;;;;;;;;;4992924;28;20450;-64
2021/05/16 05:34:13;;;;;;;10.63;10.03;;;;;;;;;;4992441;28;20605;-66
2021/05/16 05:36:39;;;;;;;10.43;9.83;;;;;;;;;;4974597;28;20833;-66
2021/05/16 05:39:07;;;;;;;11.13;10.27;;;;;;;;;;4973875;28;20451;-66
2021/05/16 05:41:34;;;;;;;11.00;10.30;;;;;;;;;;4973703;28;20499;-66
2021/05/16 05:44:01;;;;;;;10.50;9.80;;;;;;;;;;4990545;28;20450;-67
2021/05/16 05:46:28;;;;;;;11.93;10.93;;;;;;;;;;4992490;28;20856;-67
2021/05/16 05:48:55;;;;;;;11.47;10.70;;;;;;;;;;4991991;28;20545;-66
2021/05/16 05:51:22;;;;;;;11.80;11.10;;;;;;;;;;4992786;28;20451;-67
2021/05/16 05:53:48;;;;;;;13.37;12.27;;;;;;;;;;4978344;28;20455;-64
2021/05/16 05:56:16;;;;;;;12.50;11.70;;;;;;;;;;4979218;28;20490;-66
2021/05/16 05:58:42;;;;;;;11.73;11.03;;;;;;;;;;4992520;28;20473;-66
2021/05/16 06:01:09;;;;;;;12.90;12.10;;;;;;;;;;4992397;28;20872;-66
2021/05/16 06:03:36;;;;;;;14.10;13.03;;;;;;;;;;4992229;28;20459;-66
2021/05/16 06:06:03;;;;;;;12.80;11.90;;;;;;;;;;4992519;28;20485;-68
2021/05/16 06:08:29;;;;;;;14.27;13.30;;;;;;;;;;4992222;28;20954;-66
2021/05/16 06:10:56;;;;;;;14.40;13.50;;;;;;;;;;4991956;28;20945;-66
2021/05/16 06:13:23;;;;;;;7.30;6.03;;;;;;;;;;4992133;28;20459;-66
2021/05/16 06:15:50;;;;;;;13.10;8.20;;;;;;;;;;4988006;28;20493;-71
2021/05/16 06:18:17;;;;;;;5.13;4.73;;;;;;;;;;4991986;28;20458;-65
2021/05/16 06:20:43;;;;;;;6.53;5.90;;;;;;;;;;4992319;28;20459;-63
2021/05/16 06:23:13;;;;;;;6.20;5.70;;;;;;;;;;4991937;28;20450;-63
2021/05/16 06:25:39;;;;;;;7.50;6.27;;;;;;;;;;4991727;28;21019;-63
2021/05/16 06:28:06;;;;;;;8.93;8.27;;;;;;;;;;4991654;28;20455;-62
2021/05/16 06:30:33;;;;;;;9.53;8.80;;;;;;;;;;4991968;28;20462;-63
2021/05/16 06:33:00;;;;;;;7.87;7.43;;;;;;;;;;4990060;28;20836;-63
2021/05/16 06:35:27;;;;;;;7.17;6.77;;;;;;;;;;4991773;28;20491;-62
2021/05/16 06:37:53;;;;;;;8.00;7.60;;;;;;;;;;4991487;28;20454;-62
2021/05/16 06:40:20;;;;;;;7.40;6.90;;;;;;;;;;4994769;28;20505;-62
2021/05/16 06:42:47;;;;;;;6.83;6.43;;;;;;;;;;4995520;28;20466;-62
2021/05/16 06:45:13;;;;;;;5.43;5.13;;;;;;;;;;4996360;28;21004;-62
2021/05/16 06:47:41;;;;;;;4.77;4.37;;;;;;;;;;4993864;28;20458;-62
2021/05/16 06:50:09;;;;;;;5.43;5.03;;;;;;;;;;4995527;28;20462;-62
2021/05/16 06:52:36;;;;;;;4.77;4.37;;;;;;;;;;4996298;28;20465;-62
2021/05/16 06:55:03;;;;;;;3.30;3.10;;;;;;;;;;4991480;28;20517;-62
2021/05/16 06:57:31;;;;;;;3.47;3.20;;;;;;;;;;4995766;28;20581;-62
2021/05/16 06:59:58;;;;;;;3.77;3.50;;;;;;;;;;4994974;28;20481;-62
2021/05/16 07:02:24;;;;;;;3.00;2.80;;;;;;;;;;4989620;28;21069;-62
2021/05/16 07:04:52;;;;;;;3.10;2.80;;;;;;;;;;4993938;28;20473;-62
2021/05/16 07:07:18;;;;;;;2.73;2.53;;;;;;;;;;4995183;28;20452;-62
2021/05/16 07:09:45;;;;;;;3.17;2.97;;;;;;;;;;4995441;28;20454;-62
2021/05/16 07:12:12;;;;;;;3.97;3.33;;;;;;;;;;4995974;28;20461;-62
2021/05/16 07:14:38;;;;;;;3.10;2.80;;;;;;;;;;4995365;28;20486;-62
2021/05/16 07:17:05;;;;;;;2.90;2.70;;;;;;;;;;4995531;28;20503;-62
2021/05/16 07:19:31;;;;;;;2.93;2.73;;;;;;;;;;4995104;28;20879;-62
2021/05/16 07:21:59;;;;;;;3.40;3.10;;;;;;;;;;4996202;28;20454;-62
2021/05/16 07:24:25;;;;;;;2.50;2.30;;;;;;;;;;4987148;28;20451;-62
2021/05/16 07:26:52;;;;;;;2.80;2.60;;;;;;;;;;4986073;28;20454;-62
2021/05/16 07:29:19;;;;;;;3.23;2.93;;;;;;;;;;4995265;28;20450;-62
2021/05/16 07:31:45;;;;;;;3.00;2.80;;;;;;;;;;4995735;28;20573;-62
2021/05/16 07:34:12;;;;;;;3.40;3.10;;;;;;;;;;4994910;28;20450;-63
2021/05/16 07:36:39;;;;;;;2.47;2.27;;;;;;;;;;4993747;28;20560;-62
2021/05/16 07:39:06;;;;;;;4.00;3.63;;;;;;;;;;4994541;28;20458;-62
2021/05/16 07:41:33;;;;;;;3.17;2.87;;;;;;;;;;4994669;28;20467;-64
2021/05/16 07:44:00;;;;;;;3.70;2.37;;;;;;;;;;4995387;28;20451;-64
2021/05/16 07:46:27;;;;;;;6.17;5.53;;;;;;;;;;4992597;28;20473;-64
2021/05/16 07:48:53;;;;;;;7.23;3.37;;;;;;;;;;4995271;28;20443;-63
2021/05/16 07:51:20;;;;;;;4.43;3.30;;;;;;;;;;4996406;28;20458;-64
2021/05/16 07:53:46;;;;;;;4.10;2.50;;;;;;;;;;4995870;28;20812;-61
2021/05/16 07:56:14;;;;;;;5.83;3.50;;;;;;;;;;4998523;28;20486;-61
2021/05/16 07:58:40;;;;;;;4.27;2.77;;;;;;;;;;5003506;28;20453;-61
2021/05/16 08:01:07;;;;;;;5.20;2.43;;;;;;;;;;5001244;28;20812;-61
2021/05/16 08:03:34;;;;;;;3.30;2.33;;;;;;;;;;4997492;28;20455;-61
2021/05/16 08:06:00;;;;;;;2.57;2.37;;;;;;;;;;4994084;28;20557;-61
2021/05/16 08:08:27;;;;;;;4.90;2.43;;;;;;;;;;4995087;28;20795;-61
2021/05/16 08:10:54;;;;;;;2.53;2.00;;;;;;;;;;4994546;28;20451;-60
2021/05/16 08:13:21;;;;;;;2.70;2.50;;;;;;;;;;4994537;28;20884;-61
2021/05/16 08:15:48;;;;;;;3.83;2.30;;;;;;;;;;4994327;28;20883;-61
2021/05/16 08:18:14;;;;;;;2.57;2.37;;;;;;;;;;4987748;28;20816;-61
2021/05/16 08:20:41;;;;;;;4.03;2.70;;;;;;;;;;4993664;28;20508;-61
2021/05/16 08:23:08;;;;;;;4.10;2.70;;;;;;;;;;4993395;28;20892;-61
2021/05/16 08:25:36;;;;;;;3.50;3.20;;;;;;;;;;4994119;28;20503;-61
2021/05/16 08:28:03;;;;;;;3.10;2.80;;;;;;;;;;4983403;28;20503;-61
2021/05/16 08:30:30;;;;;;;2.90;2.70;;;;;;;;;;4986432;28;20457;-61
2021/05/16 08:32:57;;;;;;;4.60;3.80;;;;;;;;;;4989540;28;20461;-61
2021/05/16 08:35:23;;;;;;;3.10;2.90;;;;;;;;;;4993577;28;20837;-60
2021/05/16 08:37:50;;;;;;;3.50;3.20;;;;;;;;;;4994041;28;20614;-60
2021/05/16 08:40:17;;;;;;;4.67;3.23;;;;;;;;;;4994144;28;20458;-61
2021/05/16 08:42:44;;;;;;;4.33;3.00;;;;;;;;;;4993748;28;20459;-61
2021/05/16 08:45:12;;;;;;;4.83;4.53;;;;;;;;;;4993364;28;20997;-60
2021/05/16 08:47:41;;;;;;;4.37;2.80;;;;;;;;;;4992848;28;20964;-61
2021/05/16 08:50:09;;;;;;;3.33;3.03;;;;;;;;;;4993637;28;20961;-60
2021/05/16 08:52:36;;;;;;;3.30;3.00;;;;;;;;;;4993863;28;20455;-60
2021/05/16 08:55:03;;;;;;;2.63;2.40;;;;;;;;;;4993966;28;20544;-59
2021/05/16 08:57:30;;;;;;;3.57;2.43;;;;;;;;;;4993530;28;20450;-60
2021/05/16 09:00:04;;;;;;;3.50;3.10;;;;;;;;;;4993604;28;20945;-61
2021/05/16 09:02:31;;;;;;;5.50;5.10;;;;;;;;;;4992939;28;20458;-61
2021/05/16 09:04:58;;;;;;;2.90;2.60;;;;;;;;;;4993051;28;20471;-60
2021/05/16 09:07:29;;;;;;;3.53;3.23;;;;;;;;;;4988880;28;20813;-61
2021/05/16 09:09:56;;;;;;;2.70;2.50;;;;;;;;;;4982241;28;20518;-61
2021/05/16 09:12:23;;;;;;;3.30;3.00;;;;;;;;;;4977003;28;20486;-59
2021/05/16 09:14:51;;;;;;;2.70;2.47;;;;;;;;;;4992523;28;20853;-61
2021/05/16 09:17:22;;;;;;;3.17;2.67;;;;;;;;;;4992914;28;20473;-60
2021/05/16 09:19:50;;;;;;;2.47;2.20;;;;;;;;;;4993218;28;20494;-61
2021/05/16 09:22:31;;;;;;;3.43;3.13;;;;;;;;;;4992831;28;20815;-61
2021/05/16 09:25:11;;;;;;;2.50;2.30;;;;;;;;;;4992495;28;20508;-60
2021/05/16 09:27:38;;;;;;;4.57;2.40;;;;;;;;;;4991264;28;20569;-59
2021/05/16 09:30:23;;;;;;;4.43;2.27;;;;;;;;;;4992618;28;20885;-59
2021/05/16 09:32:51;;;;;;;2.60;2.10;;;;;;;;;;4992797;28;20442;-60
2021/05/16 09:35:18;;;;;;;2.17;1.97;;;;;;;;;;4991912;28;20910;-60
2021/05/16 09:37:59;;;;;;;1.93;1.50;;;;;;;;;;4992465;28;20513;-60
2021/05/16 09:40:27;;;;;;;2.37;1.73;;;;;;;;;;4991897;28;20480;-60
2021/05/16 09:43:06;;;;;;;4.30;4.00;;;;;;;;;;4990787;28;20458;-60
2021/05/16 09:45:41;;;;;;;6.40;5.90;;;;;;;;;;4978465;28;20462;-64
2021/05/16 09:48:17;;;;;;;5.87;5.47;;;;;;;;;;4989570;28;20454;-63
2021/05/16 09:50:43;;;;;;;8.50;7.80;;;;;;;;;;4991525;28;20449;-67
2021/05/16 09:53:11;;;;;;;8.13;7.50;;;;;;;;;;4988882;28;20479;-64
2021/05/16 09:55:38;;;;;;;6.90;6.50;;;;;;;;;;4988785;28;20496;-66
2021/05/16 09:58:05;;;;;;;7.07;6.60;;;;;;;;;;4991052;28;21006;-64
2021/05/16 10:00:32;;;;;;;6.70;6.30;;;;;;;;;;4989830;28;20462;-64
2021/05/16 10:02:58;;;;;;;6.93;6.53;;;;;;;;;;4991066;28;20455;-64
2021/05/16 10:05:25;;;;;;;7.60;7.00;;;;;;;;;;4991037;28;20474;-63
2021/05/16 10:07:52;;;;;;;7.13;6.70;;;;;;;;;;4990761;28;20455;-63
2021/05/16 10:10:19;;;;;;;7.10;6.70;;;;;;;;;;4972716;28;20443;-63
2021/05/16 10:12:46;;;;;;;9.10;8.50;;;;;;;;;;4979846;28;20466;-63
2021/05/16 10:15:14;;;;;;;7.97;7.47;;;;;;;;;;4970611;28;20934;-63
2021/05/16 10:17:43;;;;;;;11.30;10.50;;;;;;;;;;4990049;28;20454;-63
2021/05/16 10:20:10;;;;;;;9.37;8.73;;;;;;;;;;4989456;28;20560;-63
2021/05/16 10:22:39;;;;;;;10.53;9.73;;;;;;;;;;4988598;28;20478;-64
2021/05/16 10:25:07;;;;;;;10.80;10.10;;;;;;;;;;4990128;28;20540;-63
2021/05/16 10:27:42;;;;;;;11.00;10.20;;;;;;;;;;4990229;28;20966;-63
2021/05/16 10:30:12;;;;;;;11.80;10.90;;;;;;;;;;4990669;28;20500;-64
2021/05/16 10:32:39;;;;;;;7.40;6.80;;;;;;;;;;5037585;23;20500;-68
2021/05/16 10:35:06;;;;;;;5.43;4.50;;;;;;;;;;5049388;28;20578;-69
2021/05/16 10:37:53;;;;;;;8.10;4.67;;;;;;;;;;5049906;28;20456;-69
2021/05/16 10:40:27;;;;;;;4.40;4.00;;;;;;;;;;5038932;28;20452;-69
2021/05/16 10:42:55;;;;;;;7.80;7.10;;;;;;;;;;5038728;28;20474;-69
2021/05/16 10:45:23;;;;;;;5.83;3.13;;;;;;;;;;5031034;28;20526;-69
2021/05/16 10:47:51;;;;;;;5.63;3.47;;;;;;;;;;5020701;28;20534;-69
2021/05/16 10:50:38;;;;;;;5.57;3.67;;;;;;;;;;5012197;28;20473;-69
2021/05/16 10:53:05;;;;;;;6.90;4.50;;;;;;;;;;5011965;28;20473;-67
2021/05/16 10:55:33;;;;;;;7.13;3.77;;;;;;;;;;5011689;28;20485;-67
2021/05/16 10:58:01;;;;;;;7.27;6.30;;;;;;;;;;5024748;28;20480;-67
2021/05/16 11:00:30;;;;;;;7.10;6.50;;;;;;;;;;5030439;28;20456;-67
2021/05/16 11:03:00;;;;;;;8.63;7.60;;;;;;;;;;5014506;28;20481;-67
2021/05/16 11:05:43;;;;;;;7.80;7.20;;;;;;;;;;5010803;28;20536;-66
2021/05/16 11:08:11;;;;;;;6.20;5.73;;;;;;;;;;5010803;28;20473;-67
2021/05/16 11:10:38;;;;;;;5.13;4.73;;;;;;;;;;5015644;28;20818;-69
2021/05/16 11:13:09;;;;;;;4.13;3.73;;;;;;;;;;5028100;28;20511;-70
2021/05/16 11:15:36;;;;;;;4.37;3.97;;;;;;;;;;5030657;28;20492;-70
2021/05/16 11:18:07;;;;;;;4.03;3.60;;;;;;;;;;5030358;28;20515;-70
2021/05/16 11:20:34;;;;;;;5.00;4.60;;;;;;;;;;5015365;28;20545;-70
2021/05/16 11:23:01;;;;;;;6.40;5.90;;;;;;;;;;5024046;28;20843;-70
2021/05/16 11:25:28;;;;;;;5.33;4.83;;;;;;;;;;5028557;28;20457;-70
2021/05/16 11:27:55;;;;;;;4.00;3.70;;;;;;;;;;5020849;28;20458;-71
2021/05/16 11:30:27;;;;;;;3.77;3.47;;;;;;;;;;5033470;28;20449;-71
2021/05/16 11:32:54;;;;;;;4.20;3.10;;;;;;;;;;5021615;28;20544;-70
2021/05/16 11:35:22;;;;;;;3.80;3.10;;;;;;;;;;5019221;28;20484;-71
2021/05/16 11:37:51;;;;;;;4.47;3.30;;;;;;;;;;5015570;28;20446;-71
2021/05/16 11:40:25;;;;;;;3.00;2.80;;;;;;;;;;5021026;28;20510;-69
2021/05/16 11:42:59;;;;;;;3.73;3.33;;;;;;;;;;5032605;28;20572;-69
2021/05/16 11:45:29;;;;;;;4.20;3.67;;;;;;;;;;5016957;28;20821;-69
2021/05/16 11:47:55;;;;;;;5.63;4.97;;;;;;;;;;5024887;28;20461;-69
2021/05/16 11:50:37;;;;;;;5.80;5.40;;;;;;;;;;5025092;28;20456;-69
2021/05/16 11:53:04;;;;;;;5.30;4.90;;;;;;;;;;5014698;28;20485;-69
2021/05/16 11:55:30;;;;;;;6.57;5.70;;;;;;;;;;5034093;28;20487;-69
2021/05/16 11:57:57;;;;;;;7.07;6.47;;;;;;;;;;5033479;28;20484;-69
2021/05/16 12:00:25;;;;;;;7.23;6.63;;;;;;;;;;5025616;28;20536;-69
2021/05/16 12:02:52;;;;;;;7.23;6.57;;;;;;;;;;5014655;28;21106;-69
2021/05/16 12:05:27;;;;;;;6.97;6.27;;;;;;;;;;5019466;28;20961;-69
2021/05/16 12:07:53;;;;;;;6.70;6.10;;;;;;;;;;5013578;28;20521;-69
2021/05/16 12:10:20;;;;;;;6.10;5.07;;;;;;;;;;5013619;28;20464;-69
2021/05/16 12:12:47;;;;;;;5.07;4.70;;;;;;;;;;5013695;28;20523;-69
2021/05/16 12:15:14;;;;;;;5.63;5.17;;;;;;;;;;5014741;28;20921;-70
2021/05/16 12:17:40;;;;;;;4.70;4.37;;;;;;;;;;5020115;28;20454;-70
2021/05/16 12:20:09;;;;;;;6.00;5.40;;;;;;;;;;5031631;28;20532;-70
2021/05/16 12:22:36;;;;;;;5.10;4.70;;;;;;;;;;5028330;28;20468;-69
2021/05/16 12:25:03;;;;;;;5.63;4.77;;;;;;;;;;5029735;28;20816;-69
2021/05/16 12:27:30;;;;;;;5.10;4.60;;;;;;;;;;5026642;28;20465;-69
2021/05/16 12:29:57;;;;;;;6.40;5.80;;;;;;;;;;5020912;28;20967;-69
2021/05/16 12:32:24;;;;;;;5.63;5.07;;;;;;;;;;5018383;28;20570;-69
2021/05/16 12:34:51;;;;;;;3.77;3.40;;;;;;;;;;5018868;28;20864;-69
2021/05/16 12:37:19;;;;;;;5.33;3.50;;;;;;;;;;5018957;28;20454;-69
2021/05/16 12:39:47;;;;;;;3.30;2.87;;;;;;;;;;5016644;28;20912;-70
2021/05/16 12:42:24;;;;;;;2.93;2.67;;;;;;;;;;5028449;28;21086;-70
2021/05/16 12:44:51;;;;;;;3.00;2.60;;;;;;;;;;5020268;28;20471;-69
2021/05/16 12:47:24;;;;;;;3.60;3.30;;;;;;;;;;5020224;28;20816;-69
2021/05/16 12:50:00;;;;;;;4.13;3.83;;;;;;;;;;5017254;28;20454;-68
2021/05/16 12:52:28;;;;;;;5.03;4.50;;;;;;;;;;5023287;28;20488;-70
2021/05/16 12:54:55;;;;;;;4.77;4.33;;;;;;;;;;5031491;28;20502;-69
2021/05/16 12:57:28;;;;;;;4.57;4.13;;;;;;;;;;5029868;28;20486;-69
2021/05/16 12:59:54;;;;;;;4.33;3.93;;;;;;;;;;5023979;28;20937;-69
2021/05/16 13:02:27;;;;;;;4.73;4.23;;;;;;;;;;5020347;28;20477;-67
2021/05/16 13:04:54;;;;;;;4.67;4.27;;;;;;;;;;5019999;28;20464;-69
2021/05/16 13:07:35;;;;;;;4.33;3.93;;;;;;;;;;5032522;28;20781;-68
2021/05/16 13:10:02;;;;;;;3.93;3.43;;;;;;;;;;5019275;28;20464;-69
2021/05/16 13:12:28;;;;;;;4.23;3.80;;;;;;;;;;5020497;28;20484;-69
2021/05/16 13:14:55;;;;;;;3.17;2.87;;;;;;;;;;5012431;28;20473;-69
2021/05/16 13:17:30;;;;;;;4.30;3.93;;;;;;;;;;5016983;28;20464;-69
2021/05/16 13:19:56;;;;;;;3.57;3.37;;;;;;;;;;5018744;28;20486;-67
2021/05/16 13:22:36;;;;;;;4.33;4.03;;;;;;;;;;5022212;28;20477;-67
2021/05/16 13:25:05;;;;;;;4.57;4.23;;;;;;;;;;5030549;28;20470;-69
2021/05/16 13:27:31;;;;;;;4.27;3.87;;;;;;;;;;5019359;28;20453;-69
2021/05/16 13:29:59;;;;;;;4.60;4.20;;;;;;;;;;5026917;28;20450;-69
2021/05/16 13:32:25;;;;;;;3.90;3.60;;;;;;;;;;5025111;28;20564;-69
2021/05/16 13:34:52;;;;;;;3.73;3.20;;;;;;;;;;5029122;28;20498;-69
2021/05/16 13:37:19;;;;;;;4.10;2.87;;;;;;;;;;5023208;28;20507;-69
2021/05/16 13:39:46;;;;;;;2.57;2.37;;;;;;;;;;5013392;28;20461;-69
2021/05/16 13:42:13;;;;;;;2.87;2.57;;;;;;;;;;5029449;28;20521;-69
2021/05/16 13:44:39;;;;;;;3.40;3.10;;;;;;;;;;5029147;28;20461;-70
2021/05/16 13:47:06;;;;;;;3.57;2.70;;;;;;;;;;5026920;28;20470;-69
2021/05/16 13:49:33;;;;;;;4.60;2.90;;;;;;;;;;5011949;28;20462;-69
2021/05/16 13:52:00;;;;;;;3.50;2.70;;;;;;;;;;5026158;28;20485;-69
2021/05/16 13:54:30;;;;;;;2.37;2.13;;;;;;;;;;5013987;28;20458;-69
2021/05/16 13:56:58;;;;;;;3.60;2.57;;;;;;;;;;5026965;28;20833;-69
2021/05/16 13:59:25;;;;;;;3.90;2.73;;;;;;;;;;5025252;28;20474;-70
2021/05/16 14:01:52;;;;;;;3.70;2.30;;;;;;;;;;5028846;28;20504;-70
2021/05/16 14:04:19;;;;;;;3.63;2.90;;;;;;;;;;5025451;28;20460;-69
2021/05/16 14:06:45;;;;;;;4.23;2.90;;;;;;;;;;5018677;28;20461;-69
2021/05/16 14:09:13;;;;;;;4.13;3.27;;;;;;;;;;5013173;28;20445;-70
2021/05/16 14:11:40;;;;;;;3.40;2.57;;;;;;;;;;5011258;28;20513;-69
2021/05/16 14:14:08;;;;;;;4.60;3.23;;;;;;;;;;5018033;28;20453;-69
2021/05/16 14:16:35;;;;;;;5.40;3.33;;;;;;;;;;5016975;28;21034;-68
2021/05/16 14:19:02;;;;;;;5.63;3.10;;;;;;;;;;5014788;28;20476;-70
2021/05/16 14:21:29;;;;;;;4.20;3.23;;;;;;;;;;5023682;28;20794;-70
2021/05/16 14:23:56;;;;;;;5.37;4.37;;;;;;;;;;5013093;28;20449;-70
2021/05/16 14:26:22;;;;;;;4.63;3.70;;;;;;;;;;5011576;28;20454;-66
2021/05/16 14:28:49;;;;;;;6.37;4.10;;;;;;;;;;5013548;28;20500;-69
2021/05/16 14:31:16;;;;;;;6.43;4.80;;;;;;;;;;5018690;28;20478;-69
2021/05/16 14:33:43;;;;;;;5.13;4.43;;;;;;;;;;5028210;28;21045;-69
2021/05/16 14:36:10;;;;;;;7.03;5.10;;;;;;;;;;5030176;28;20487;-69